createdAt,value
2017-05-22T00:00:34.475Z,12.05
2017-05-22T00:01:35.818Z,12.15
2017-05-22T00:02:37.152Z,12.26
2017-05-22T00:03:38.548Z,12.41
2017-05-22T00:04:39.805Z,12.39
2017-05-22T00:05:41.144Z,12.41
2017-05-22T00:06:42.484Z,12.46
2017-05-22T00:07:43.820Z,12.48
2017-05-22T00:08:45.157Z,12.48
2017-05-22T00:09:46.505Z,12.59
2017-05-22T00:10:47.841Z,12.49
2017-05-22T00:11:49.183Z,12.49
2017-05-22T00:12:50.530Z,12.41
2017-05-22T00:13:51.864Z,12.34
2017-05-22T00:14:53.200Z,12.45
2017-05-22T00:15:54.536Z,12.44
2017-05-22T00:16:55.895Z,12.46
2017-05-22T00:17:57.229Z,12.51
2017-05-22T00:18:58.575Z,12.54
2017-05-22T00:19:59.913Z,12.64
2017-05-22T00:21:01.250Z,12.59
2017-05-22T00:22:02.589Z,12.62
2017-05-22T00:23:03.927Z,12.54
2017-05-22T00:24:05.264Z,12.60
2017-05-22T00:25:06.599Z,12.66
2017-05-22T00:26:07.942Z,12.60
2017-05-22T00:27:09.281Z,12.57
2017-05-22T00:28:10.619Z,12.66
2017-05-22T00:29:11.957Z,12.64
2017-05-22T00:30:13.297Z,12.63
2017-05-22T00:31:14.634Z,12.51
2017-05-22T00:32:15.973Z,12.54
2017-05-22T00:33:17.307Z,12.56
2017-05-22T00:34:18.664Z,12.52
2017-05-22T00:35:20.004Z,12.42
2017-05-22T00:36:21.346Z,12.46
2017-05-22T00:37:22.683Z,12.41
2017-05-22T00:38:24.016Z,12.48
2017-05-22T00:39:25.349Z,12.46
2017-05-22T00:40:26.683Z,12.45
2017-05-22T00:41:28.022Z,12.41
2017-05-22T00:42:29.361Z,12.39
2017-05-22T00:43:30.712Z,12.24
2017-05-22T00:44:32.053Z,12.23
2017-05-22T00:45:33.398Z,12.45
2017-05-22T00:46:34.743Z,12.31
2017-05-22T00:47:36.084Z,12.31
2017-05-22T00:48:37.420Z,12.41
2017-05-22T00:49:38.765Z,12.39
2017-05-22T00:50:40.107Z,12.41
2017-05-22T00:51:41.448Z,12.45
2017-05-22T00:52:42.789Z,12.41
2017-05-22T00:53:44.128Z,12.52
2017-05-22T00:54:45.472Z,12.46
2017-05-22T00:55:46.820Z,12.45
2017-05-22T00:56:48.159Z,12.39
2017-05-22T00:57:49.501Z,12.51
2017-05-22T00:58:50.843Z,12.54
2017-05-22T00:59:52.182Z,12.56
2017-05-22T01:00:53.521Z,12.49
2017-05-22T01:01:54.875Z,12.48
2017-05-22T01:02:56.209Z,12.54
2017-05-22T01:03:57.554Z,12.62
2017-05-22T01:04:58.893Z,12.60
2017-05-22T01:06:00.265Z,12.75
2017-05-22T01:07:01.607Z,12.75
2017-05-22T01:08:03.017Z,12.81
2017-05-22T01:09:04.242Z,12.84
2017-05-22T01:10:05.580Z,12.85
2017-05-22T01:11:06.923Z,12.77
2017-05-22T01:12:08.263Z,12.69
2017-05-22T01:13:09.605Z,12.88
2017-05-22T01:14:10.942Z,12.82
2017-05-22T01:15:12.343Z,12.87
2017-05-22T01:16:13.632Z,12.78
2017-05-22T01:17:14.968Z,12.77
2017-05-22T01:18:16.308Z,12.82
2017-05-22T01:19:17.738Z,12.84
2017-05-22T01:20:19.072Z,12.82
2017-05-22T01:21:20.419Z,12.81
2017-05-22T01:22:21.755Z,12.81
2017-05-22T01:23:23.095Z,12.82
2017-05-22T01:24:24.436Z,12.78
2017-05-22T01:25:25.782Z,12.71
2017-05-22T01:26:27.137Z,12.75
2017-05-22T01:27:28.476Z,12.71
2017-05-22T01:28:29.813Z,12.75
2017-05-22T01:29:31.152Z,12.69
2017-05-22T01:30:32.484Z,12.71
2017-05-22T01:31:33.822Z,12.64
2017-05-22T01:32:35.162Z,12.74
2017-05-22T01:33:36.495Z,12.74
2017-05-22T01:34:37.833Z,12.67
2017-05-22T01:35:39.166Z,12.62
2017-05-22T01:36:40.508Z,12.54
2017-05-22T01:37:41.842Z,12.56
2017-05-22T01:38:43.180Z,12.62
2017-05-22T01:39:44.516Z,12.63
2017-05-22T01:40:45.855Z,12.51
2017-05-22T01:41:47.189Z,12.41
2017-05-22T01:42:48.526Z,12.52
2017-05-22T01:43:49.861Z,12.42
2017-05-22T01:44:51.194Z,12.34
2017-05-22T01:45:52.533Z,12.41
2017-05-22T01:46:53.869Z,12.19
2017-05-22T01:47:55.204Z,12.13
2017-05-22T01:48:56.542Z,12.12
2017-05-22T01:49:57.878Z,12.15
2017-05-22T01:50:59.215Z,12.11
2017-05-22T01:52:00.548Z,12.12
2017-05-22T01:53:01.880Z,12.15
2017-05-22T01:54:03.214Z,12.04
2017-05-22T01:55:04.549Z,11.87
2017-05-22T01:56:05.896Z,11.94
2017-05-22T01:57:07.233Z,11.82
2017-05-22T01:58:08.567Z,11.83
2017-05-22T01:59:09.901Z,11.77
2017-05-22T02:00:11.247Z,11.72
2017-05-22T02:01:12.595Z,11.68
2017-05-22T02:02:13.920Z,11.52
2017-05-22T02:03:15.256Z,11.53
2017-05-22T02:04:16.592Z,11.52
2017-05-22T02:05:17.924Z,11.47
2017-05-22T02:06:19.259Z,11.57
2017-05-22T02:07:20.594Z,11.43
2017-05-22T02:08:21.945Z,11.46
2017-05-22T02:09:23.278Z,11.47
2017-05-22T02:10:24.616Z,11.38
2017-05-22T02:11:25.951Z,11.34
2017-05-22T02:12:27.282Z,11.19
2017-05-22T02:13:28.619Z,11.14
2017-05-22T02:14:29.952Z,11.14
2017-05-22T02:15:31.345Z,11.27
2017-05-22T02:16:32.580Z,11.20
2017-05-22T02:17:33.933Z,11.21
2017-05-22T02:18:35.264Z,11.34
2017-05-22T02:19:36.595Z,11.38
2017-05-22T02:20:37.930Z,11.44
2017-05-22T02:21:39.287Z,11.49
2017-05-22T02:22:40.618Z,11.53
2017-05-22T02:23:41.960Z,11.53
2017-05-22T02:24:43.291Z,11.50
2017-05-22T02:25:44.626Z,11.57
2017-05-22T02:26:45.963Z,11.50
2017-05-22T02:27:47.344Z,11.35
2017-05-22T02:28:48.679Z,11.39
2017-05-22T02:29:50.018Z,11.29
2017-05-22T02:30:51.352Z,11.35
2017-05-22T02:31:52.692Z,11.36
2017-05-22T02:32:54.022Z,11.21
2017-05-22T02:33:55.371Z,11.11
2017-05-22T02:34:56.707Z,11.19
2017-05-22T02:35:58.046Z,10.95
2017-05-22T02:36:59.385Z,10.98
2017-05-22T02:38:00.721Z,10.84
2017-05-22T02:39:02.056Z,10.77
2017-05-22T02:40:03.397Z,10.60
2017-05-22T02:41:04.748Z,10.59
2017-05-22T02:42:06.073Z,10.56
2017-05-22T02:43:07.408Z,10.62
2017-05-22T02:44:08.751Z,10.52
2017-05-22T02:45:10.085Z,10.42
2017-05-22T02:46:11.463Z,10.44
2017-05-22T02:47:12.799Z,10.42
2017-05-22T02:48:14.137Z,10.39
2017-05-22T02:49:15.476Z,10.36
2017-05-22T02:50:16.813Z,10.28
2017-05-22T02:51:18.148Z,10.32
2017-05-22T02:52:19.484Z,10.32
2017-05-22T02:53:20.821Z,10.36
2017-05-22T02:54:22.155Z,10.40
2017-05-22T02:55:23.490Z,10.42
2017-05-22T02:56:24.832Z,10.47
2017-05-22T02:57:26.167Z,10.47
2017-05-22T02:58:27.500Z,10.53
2017-05-22T02:59:28.841Z,10.58
2017-05-22T03:00:30.181Z,10.68
2017-05-22T03:01:31.511Z,10.44
2017-05-22T03:02:32.852Z,10.51
2017-05-22T03:03:34.183Z,10.58
2017-05-22T03:04:35.519Z,10.43
2017-05-22T03:05:36.874Z,10.58
2017-05-22T03:06:38.212Z,10.52
2017-05-22T03:07:39.544Z,10.51
2017-05-22T03:08:40.880Z,10.55
2017-05-22T03:09:42.217Z,10.63
2017-05-22T03:10:43.550Z,10.66
2017-05-22T03:11:44.888Z,10.58
2017-05-22T03:12:46.227Z,10.58
2017-05-22T03:13:47.561Z,10.46
2017-05-22T03:14:48.899Z,10.51
2017-05-22T03:15:50.235Z,10.52
2017-05-22T03:16:51.574Z,10.39
2017-05-22T03:17:52.908Z,10.37
2017-05-22T03:18:54.249Z,10.30
2017-05-22T03:19:55.584Z,10.52
2017-05-22T03:20:56.927Z,10.39
2017-05-22T03:21:58.267Z,10.44
2017-05-22T03:22:59.606Z,10.51
2017-05-22T03:24:01.031Z,10.44
2017-05-22T03:25:02.374Z,10.53
2017-05-22T03:26:03.715Z,10.43
2017-05-22T03:27:05.054Z,10.66
2017-05-22T03:28:06.500Z,10.76
2017-05-22T03:29:07.781Z,10.73
2017-05-22T03:30:09.120Z,10.80
2017-05-22T03:31:10.453Z,10.83
2017-05-22T03:32:11.849Z,10.86
2017-05-22T03:33:13.194Z,10.83
2017-05-22T03:34:14.548Z,10.89
2017-05-22T03:35:15.886Z,10.92
2017-05-22T03:36:17.240Z,10.78
2017-05-22T03:37:18.583Z,10.81
2017-05-22T03:38:19.938Z,10.96
2017-05-22T03:39:21.273Z,10.88
2017-05-22T03:40:22.629Z,11.01
2017-05-22T03:41:23.970Z,11.02
2017-05-22T03:42:25.306Z,11.06
2017-05-22T03:43:26.646Z,11.09
2017-05-22T03:44:27.986Z,11.10
2017-05-22T03:45:29.324Z,11.03
2017-05-22T03:46:30.667Z,11.06
2017-05-22T03:47:32.003Z,11.09
2017-05-22T03:48:33.349Z,11.09
2017-05-22T03:49:34.703Z,11.14
2017-05-22T03:50:36.048Z,11.10
2017-05-22T03:51:37.381Z,11.11
2017-05-22T03:52:38.721Z,11.14
2017-05-22T03:53:40.066Z,10.99
2017-05-22T03:54:41.415Z,10.98
2017-05-22T03:55:42.759Z,10.94
2017-05-22T03:56:44.101Z,10.96
2017-05-22T03:57:45.462Z,11.07
2017-05-22T03:58:46.800Z,11.06
2017-05-22T03:59:48.136Z,10.92
2017-05-22T04:00:49.471Z,11.13
2017-05-22T04:01:50.815Z,11.02
2017-05-22T04:02:52.156Z,10.99
2017-05-22T04:03:53.501Z,10.92
2017-05-22T04:04:54.844Z,10.94
2017-05-22T04:05:56.186Z,10.84
2017-05-22T04:06:57.521Z,10.99
2017-05-22T04:07:58.867Z,11.13
2017-05-22T04:09:00.202Z,11.19
2017-05-22T04:10:01.544Z,11.14
2017-05-22T04:11:02.887Z,11.13
2017-05-22T04:12:04.225Z,11.11
2017-05-22T04:13:05.566Z,11.19
2017-05-22T04:14:06.908Z,11.14
2017-05-22T04:15:08.249Z,11.11
2017-05-22T04:16:09.595Z,11.14
2017-05-22T04:17:10.943Z,11.07
2017-05-22T04:18:12.289Z,11.06
2017-05-22T04:19:13.628Z,10.99
2017-05-22T04:20:14.968Z,11.11
2017-05-22T04:21:16.308Z,11.09
2017-05-22T04:22:17.647Z,11.14
2017-05-22T04:23:18.990Z,11.46
2017-05-22T04:24:20.423Z,11.41
2017-05-22T04:25:21.768Z,11.61
2017-05-22T04:26:23.115Z,11.59
2017-05-22T04:27:24.447Z,11.75
2017-05-22T04:28:25.788Z,11.71
2017-05-22T04:29:27.127Z,11.83
2017-05-22T04:30:28.473Z,11.89
2017-05-22T04:31:29.819Z,11.87
2017-05-22T04:32:31.160Z,11.80
2017-05-22T04:33:32.508Z,11.89
2017-05-22T04:34:33.870Z,11.89
2017-05-22T04:35:35.228Z,11.99
2017-05-22T04:36:36.567Z,12.05
2017-05-22T04:37:37.916Z,12.12
2017-05-22T04:38:39.288Z,12.33
2017-05-22T04:39:40.646Z,12.41
2017-05-22T04:40:41.988Z,12.56
2017-05-22T04:41:43.329Z,12.60
2017-05-22T04:42:44.680Z,12.77
2017-05-22T04:43:46.020Z,12.71
2017-05-22T04:44:47.364Z,12.95
2017-05-22T04:45:48.704Z,13.11
2017-05-22T04:46:50.051Z,13.47
2017-05-22T04:47:51.399Z,13.52
2017-05-22T04:48:52.744Z,13.58
2017-05-22T04:49:54.093Z,13.79
2017-05-22T04:50:55.480Z,13.96
2017-05-22T04:51:56.813Z,14.14
2017-05-22T04:52:58.161Z,14.16
2017-05-22T04:53:59.510Z,14.12
2017-05-22T04:55:00.855Z,14.17
2017-05-22T04:56:02.198Z,14.14
2017-05-22T04:57:03.546Z,14.06
2017-05-22T04:58:04.886Z,14.06
2017-05-22T04:59:06.279Z,13.95
2017-05-22T05:00:07.624Z,14.07
2017-05-22T05:01:08.968Z,13.91
2017-05-22T05:02:10.317Z,14.01
2017-05-22T05:03:11.655Z,14.19
2017-05-22T05:04:13.006Z,14.43
2017-05-22T05:05:14.345Z,14.78
2017-05-22T05:06:15.703Z,15.08
2017-05-22T05:07:17.044Z,15.13
2017-05-22T05:08:18.388Z,15.35
2017-05-22T05:09:19.742Z,15.31
2017-05-22T05:10:21.080Z,15.74
2017-05-22T05:11:22.485Z,16.06
2017-05-22T05:12:23.781Z,15.93
2017-05-22T05:13:25.126Z,16.23
2017-05-22T05:14:26.535Z,16.41
2017-05-22T05:15:27.879Z,16.41
2017-05-22T05:16:29.233Z,16.62
2017-05-22T05:17:30.580Z,17.03
2017-05-22T05:18:31.932Z,16.98
2017-05-22T05:19:33.282Z,16.93
2017-05-22T05:20:34.624Z,16.60
2017-05-22T05:21:35.975Z,16.41
2017-05-22T05:22:37.336Z,17.11
2017-05-22T05:23:38.684Z,16.98
2017-05-22T05:24:40.038Z,17.07
2017-05-22T05:25:41.401Z,17.15
2017-05-22T05:26:42.760Z,17.17
2017-05-22T05:27:44.103Z,17.13
2017-05-22T05:28:45.450Z,17.79
2017-05-22T05:29:46.801Z,17.81
2017-05-22T05:30:48.153Z,17.40
2017-05-22T05:31:49.498Z,17.70
2017-05-22T05:32:50.848Z,17.87
2017-05-22T05:33:52.195Z,17.70
2017-05-22T05:34:53.543Z,17.38
2017-05-22T05:35:54.893Z,17.69
2017-05-22T05:36:56.241Z,18.00
2017-05-22T05:37:57.593Z,17.89
2017-05-22T05:38:58.938Z,17.91
2017-05-22T05:40:00.282Z,18.43
2017-05-22T05:41:01.633Z,18.39
2017-05-22T05:42:02.985Z,18.18
2017-05-22T05:43:04.338Z,17.92
2017-05-22T05:44:05.687Z,18.55
2017-05-22T05:45:07.044Z,18.86
2017-05-22T05:46:08.397Z,18.99
2017-05-22T05:47:09.742Z,19.08
2017-05-22T05:48:11.098Z,19.02
2017-05-22T05:49:12.455Z,19.23
2017-05-22T05:50:13.810Z,19.29
2017-05-22T05:51:15.156Z,18.87
2017-05-22T05:52:16.507Z,19.02
2017-05-22T05:53:17.859Z,18.70
2017-05-22T05:54:19.206Z,18.82
2017-05-22T05:55:20.554Z,18.70
2017-05-22T05:56:21.913Z,19.02
2017-05-22T05:57:23.267Z,18.97
2017-05-22T05:58:24.619Z,19.02
2017-05-22T05:59:25.972Z,18.98
2017-05-22T06:00:27.324Z,19.15
2017-05-22T06:01:28.676Z,18.92
2017-05-22T06:02:30.030Z,18.80
2017-05-22T06:03:31.380Z,19.40
2017-05-22T06:04:32.738Z,19.54
2017-05-22T06:05:34.116Z,19.40
2017-05-22T06:06:35.487Z,19.21
2017-05-22T06:07:36.844Z,19.43
2017-05-22T06:08:38.205Z,19.40
2017-05-22T06:09:39.604Z,19.88
2017-05-22T06:10:40.956Z,20.09
2017-05-22T06:11:42.311Z,20.58
2017-05-22T06:12:43.671Z,20.95
2017-05-22T06:13:45.026Z,20.69
2017-05-22T06:14:46.383Z,20.61
2017-05-22T06:15:47.745Z,20.50
2017-05-22T06:16:49.103Z,21.21
2017-05-22T06:17:50.462Z,21.24
2017-05-22T06:18:51.822Z,21.48
2017-05-22T06:19:53.178Z,20.84
2017-05-22T06:20:54.545Z,21.20
2017-05-22T06:21:55.903Z,21.09
2017-05-22T06:22:57.259Z,21.23
2017-05-22T06:23:58.631Z,21.67
2017-05-22T06:25:00.002Z,21.61
2017-05-22T06:26:01.405Z,21.35
2017-05-22T06:27:02.763Z,21.50
2017-05-22T06:28:04.119Z,21.50
2017-05-22T06:29:05.482Z,21.92
2017-05-22T06:30:06.852Z,22.16
2017-05-22T06:31:08.217Z,22.31
2017-05-22T06:32:09.577Z,22.64
2017-05-22T06:33:10.936Z,22.68
2017-05-22T06:34:12.309Z,22.50
2017-05-22T06:35:13.666Z,22.86
2017-05-22T06:36:15.030Z,22.49
2017-05-22T06:37:16.400Z,22.93
2017-05-22T06:38:17.770Z,21.74
2017-05-22T06:39:19.168Z,21.46
2017-05-22T06:40:20.540Z,20.84
2017-05-22T06:41:21.898Z,20.72
2017-05-22T06:42:23.269Z,20.87
2017-05-22T06:43:24.699Z,20.76
2017-05-22T06:44:26.068Z,21.94
2017-05-22T06:45:27.427Z,22.23
2017-05-22T06:46:28.787Z,22.47
2017-05-22T06:47:30.214Z,21.54
2017-05-22T06:48:31.572Z,21.59
2017-05-22T06:49:32.928Z,21.76
2017-05-22T06:50:34.291Z,21.82
2017-05-22T06:51:35.747Z,22.50
2017-05-22T06:52:37.112Z,23.31
2017-05-22T06:53:38.468Z,23.08
2017-05-22T06:54:39.831Z,23.15
2017-05-22T06:55:41.253Z,23.38
2017-05-22T06:56:42.617Z,23.23
2017-05-22T06:57:43.981Z,23.02
2017-05-22T06:58:45.342Z,23.64
2017-05-22T06:59:46.736Z,23.76
2017-05-22T07:00:48.095Z,23.86
2017-05-22T07:01:49.452Z,24.47
2017-05-22T07:02:50.822Z,24.52
2017-05-22T07:03:52.189Z,25.01
2017-05-22T07:04:53.555Z,24.39
2017-05-22T07:05:57.076Z,24.07
2017-05-22T07:06:58.438Z,23.64
2017-05-22T07:07:59.797Z,22.78
2017-05-22T07:09:01.161Z,23.57
2017-05-22T07:10:02.514Z,24.42
2017-05-22T07:11:03.874Z,24.63
2017-05-22T07:12:05.238Z,24.37
2017-05-22T07:13:06.597Z,24.95
2017-05-22T07:14:07.996Z,25.28
2017-05-22T07:15:09.367Z,25.12
2017-05-22T07:16:10.755Z,24.59
2017-05-22T07:17:12.126Z,24.34
2017-05-22T07:18:13.495Z,24.37
2017-05-22T07:19:14.861Z,24.87
2017-05-22T07:20:16.221Z,25.38
2017-05-22T07:21:17.587Z,26.01
2017-05-22T07:22:18.950Z,26.18
2017-05-22T07:23:20.309Z,26.32
2017-05-22T07:24:21.680Z,26.32
2017-05-22T07:25:23.055Z,26.73
2017-05-22T07:26:24.426Z,26.72
2017-05-22T07:27:25.792Z,26.69
2017-05-22T07:28:27.156Z,26.27
2017-05-22T07:29:28.512Z,27.05
2017-05-22T07:30:29.874Z,27.43
2017-05-22T07:31:31.252Z,27.53
2017-05-22T07:32:32.611Z,28.32
2017-05-22T07:33:33.983Z,27.41
2017-05-22T07:34:35.370Z,25.05
2017-05-22T07:35:36.748Z,25.71
2017-05-22T07:36:38.113Z,26.06
2017-05-22T07:37:39.498Z,26.18
2017-05-22T07:38:40.864Z,26.35
2017-05-22T07:39:42.220Z,26.54
2017-05-22T07:40:43.590Z,25.54
2017-05-22T07:41:44.951Z,25.65
2017-05-22T07:42:46.326Z,25.79
2017-05-22T07:43:47.704Z,26.58
2017-05-22T07:44:49.086Z,26.89
2017-05-22T07:45:50.471Z,25.97
2017-05-22T07:46:51.857Z,25.67
2017-05-22T07:47:53.224Z,26.20
2017-05-22T07:48:54.605Z,26.81
2017-05-22T07:49:55.965Z,26.42
2017-05-22T07:50:57.333Z,26.50
2017-05-22T07:51:58.694Z,27.06
2017-05-22T07:53:00.061Z,27.28
2017-05-22T07:54:01.430Z,27.57
2017-05-22T07:55:02.792Z,27.26
2017-05-22T07:56:04.165Z,27.89
2017-05-22T07:57:05.542Z,27.50
2017-05-22T07:58:06.914Z,26.28
2017-05-22T07:59:08.309Z,27.54
2017-05-22T08:00:09.670Z,27.28
2017-05-22T08:01:11.077Z,25.90
2017-05-22T08:02:12.445Z,25.49
2017-05-22T08:03:13.805Z,25.99
2017-05-22T08:04:15.195Z,26.32
2017-05-22T08:05:16.558Z,26.32
2017-05-22T08:06:18.003Z,26.40
2017-05-22T08:07:19.375Z,26.57
2017-05-22T08:08:20.759Z,26.62
2017-05-22T08:09:22.128Z,26.73
2017-05-22T08:10:23.505Z,27.41
2017-05-22T08:11:24.881Z,27.24
2017-05-22T08:12:26.257Z,26.96
2017-05-22T08:13:27.647Z,26.43
2017-05-22T08:14:29.050Z,25.91
2017-05-22T08:15:30.435Z,26.02
2017-05-22T08:16:31.832Z,24.82
2017-05-22T08:17:33.223Z,25.50
2017-05-22T08:18:34.682Z,26.32
2017-05-22T08:19:36.092Z,27.51
2017-05-22T08:20:37.541Z,28.17
2017-05-22T08:21:38.938Z,28.51
2017-05-22T08:22:40.332Z,27.85
2017-05-22T08:23:41.742Z,27.35
2017-05-22T08:24:43.129Z,27.33
2017-05-22T08:25:44.510Z,26.99
2017-05-22T08:26:45.895Z,26.01
2017-05-22T08:27:47.311Z,27.32
2017-05-22T08:28:48.692Z,27.74
2017-05-22T08:29:50.099Z,25.84
2017-05-22T08:30:51.487Z,26.40
2017-05-22T08:31:52.849Z,27.06
2017-05-22T08:32:54.220Z,27.76
2017-05-22T08:33:55.576Z,27.13
2017-05-22T08:34:56.958Z,28.03
2017-05-22T08:35:58.357Z,28.70
2017-05-22T08:36:59.749Z,27.57
2017-05-22T08:38:01.120Z,27.66
2017-05-22T08:39:02.478Z,26.46
2017-05-22T08:40:03.848Z,26.64
2017-05-22T08:41:05.215Z,27.13
2017-05-22T08:42:06.627Z,27.26
2017-05-22T08:43:07.997Z,26.96
2017-05-22T08:44:09.390Z,28.53
2017-05-22T08:45:10.772Z,28.53
2017-05-22T08:46:12.189Z,28.19
2017-05-22T08:47:13.558Z,27.88
2017-05-22T08:48:15.094Z,28.31
2017-05-22T08:49:16.460Z,28.43
2017-05-22T08:50:17.850Z,28.36
2017-05-22T08:51:19.229Z,29.03
2017-05-22T08:52:20.600Z,28.40
2017-05-22T08:53:21.973Z,27.42
2017-05-22T08:54:23.334Z,27.66
2017-05-22T08:55:24.708Z,27.89
2017-05-22T08:56:26.071Z,27.05
2017-05-22T08:57:27.463Z,27.82
2017-05-22T08:58:28.837Z,26.98
2017-05-22T08:59:30.206Z,27.77
2017-05-22T09:00:31.584Z,27.73
2017-05-22T09:01:32.951Z,28.44
2017-05-22T09:02:34.343Z,28.75
2017-05-22T09:03:35.710Z,26.96
2017-05-22T09:04:37.083Z,27.17
2017-05-22T09:05:38.446Z,26.73
2017-05-22T09:06:39.816Z,26.92
2017-05-22T09:07:41.175Z,26.74
2017-05-22T09:08:42.546Z,26.98
2017-05-22T09:09:43.915Z,27.24
2017-05-22T09:10:45.286Z,26.86
2017-05-22T09:11:46.652Z,26.98
2017-05-22T09:12:48.020Z,28.06
2017-05-22T09:13:49.393Z,27.73
2017-05-22T09:14:50.753Z,27.85
2017-05-22T09:15:52.121Z,27.74
2017-05-22T09:16:53.500Z,27.91
2017-05-22T09:17:54.859Z,27.36
2017-05-22T09:18:56.243Z,28.25
2017-05-22T09:19:57.628Z,28.58
2017-05-22T09:20:59.005Z,28.23
2017-05-22T09:22:00.408Z,28.68
2017-05-22T09:23:01.777Z,28.14
2017-05-22T09:24:03.167Z,28.66
2017-05-22T09:25:04.540Z,27.67
2017-05-22T09:26:05.915Z,27.02
2017-05-22T09:27:07.323Z,26.52
2017-05-22T09:28:08.710Z,26.67
2017-05-22T09:29:10.101Z,26.43
2017-05-22T09:30:11.486Z,27.02
2017-05-22T09:31:12.861Z,26.98
2017-05-22T09:32:14.246Z,27.41
2017-05-22T09:33:15.636Z,27.28
2017-05-22T09:34:17.027Z,28.46
2017-05-22T09:35:18.406Z,28.82
2017-05-22T09:36:19.772Z,28.84
2017-05-22T09:37:21.153Z,28.09
2017-05-22T09:38:22.591Z,28.65
2017-05-22T09:39:24.002Z,29.00
2017-05-22T09:40:25.401Z,29.57
2017-05-22T09:41:26.826Z,29.57
2017-05-22T09:42:28.223Z,30.36
2017-05-22T09:43:29.603Z,28.60
2017-05-22T09:44:31.033Z,29.50
2017-05-22T09:45:32.438Z,30.61
2017-05-22T09:46:33.860Z,29.50
2017-05-22T09:47:35.233Z,29.79
2017-05-22T09:48:36.629Z,29.06
2017-05-22T09:49:38.004Z,29.92
2017-05-22T09:50:39.370Z,29.92
2017-05-22T09:51:40.741Z,30.00
2017-05-22T09:52:42.110Z,30.12
2017-05-22T09:53:43.474Z,29.66
2017-05-22T09:54:44.858Z,30.31
2017-05-22T09:55:46.225Z,30.37
2017-05-22T09:56:47.595Z,29.71
2017-05-22T09:57:48.964Z,29.35
2017-05-22T09:58:50.349Z,29.26
2017-05-22T09:59:51.719Z,28.56
2017-05-22T10:00:53.102Z,28.46
2017-05-22T10:01:54.481Z,28.65
2017-05-22T10:02:55.850Z,27.54
2017-05-22T10:03:57.216Z,27.26
2017-05-22T10:04:58.778Z,27.77
2017-05-22T10:06:00.160Z,28.38
2017-05-22T10:07:01.532Z,29.11
2017-05-22T10:08:02.900Z,29.22
2017-05-22T10:09:04.274Z,30.18
2017-05-22T10:10:05.651Z,29.84
2017-05-22T10:11:07.028Z,30.08
2017-05-22T10:12:08.393Z,29.33
2017-05-22T10:13:09.766Z,28.97
2017-05-22T10:14:11.127Z,28.60
2017-05-22T10:15:12.497Z,28.40
2017-05-22T10:16:13.899Z,27.77
2017-05-22T10:17:15.273Z,28.96
2017-05-22T10:18:16.641Z,29.00
2017-05-22T10:19:18.021Z,28.75
2017-05-22T10:20:19.388Z,28.84
2017-05-22T10:21:20.755Z,29.07
2017-05-22T10:22:22.121Z,29.72
2017-05-22T10:23:23.510Z,29.66
2017-05-22T10:24:24.880Z,29.52
2017-05-22T10:25:26.253Z,28.38
2017-05-22T10:26:27.629Z,29.00
2017-05-22T10:27:29.033Z,29.01
2017-05-22T10:28:30.394Z,29.89
2017-05-22T10:29:31.760Z,30.24
2017-05-22T10:30:33.135Z,29.87
2017-05-22T10:31:34.514Z,29.06
2017-05-22T10:32:35.883Z,29.70
2017-05-22T10:33:37.454Z,30.91
2017-05-22T10:34:38.718Z,31.49
2017-05-22T10:35:40.080Z,31.02
2017-05-22T10:36:41.452Z,30.29
2017-05-22T10:37:42.829Z,30.86
2017-05-22T10:38:44.201Z,31.45
2017-05-22T10:39:45.570Z,32.88
2017-05-22T10:40:46.940Z,33.39
2017-05-22T10:41:48.318Z,34.31
2017-05-22T10:42:49.687Z,34.39
2017-05-22T10:43:51.057Z,33.01
2017-05-22T10:44:52.437Z,31.60
2017-05-22T10:45:53.807Z,30.57
2017-05-22T10:46:55.195Z,31.49
2017-05-22T10:47:56.562Z,31.70
2017-05-22T10:48:57.941Z,31.76
2017-05-22T10:49:59.311Z,32.30
2017-05-22T10:51:00.688Z,31.40
2017-05-22T10:52:02.055Z,31.77
2017-05-22T10:53:03.427Z,32.59
2017-05-22T10:54:04.844Z,33.73
2017-05-22T10:55:06.211Z,33.64
2017-05-22T10:56:07.588Z,30.84
2017-05-22T10:57:08.954Z,30.31
2017-05-22T10:58:10.363Z,28.78
2017-05-22T10:59:11.735Z,28.43
2017-05-22T11:00:13.111Z,28.62
2017-05-22T11:01:14.498Z,27.73
2017-05-22T11:02:15.895Z,27.16
2017-05-22T11:03:17.263Z,28.53
2017-05-22T11:04:18.631Z,28.62
2017-05-22T11:05:19.999Z,30.46
2017-05-22T11:06:21.377Z,31.04
2017-05-22T11:07:22.750Z,30.91
2017-05-22T11:08:24.127Z,29.66
2017-05-22T11:09:25.493Z,29.86
2017-05-22T11:10:26.880Z,30.91
2017-05-22T11:11:28.247Z,31.88
2017-05-22T11:12:29.620Z,31.45
2017-05-22T11:13:30.995Z,30.29
2017-05-22T11:14:32.398Z,30.37
2017-05-22T11:15:33.766Z,31.15
2017-05-22T11:16:35.130Z,30.75
2017-05-22T11:17:36.536Z,31.57
2017-05-22T11:18:37.906Z,31.09
2017-05-22T11:19:39.285Z,29.86
2017-05-22T11:20:40.655Z,30.00
2017-05-22T11:21:42.018Z,29.99
2017-05-22T11:22:43.391Z,30.11
2017-05-22T11:23:44.764Z,29.92
2017-05-22T11:24:46.128Z,30.05
2017-05-22T11:25:47.496Z,30.86
2017-05-22T11:26:48.863Z,32.43
2017-05-22T11:27:50.234Z,32.13
2017-05-22T11:28:51.628Z,30.81
2017-05-22T11:29:52.997Z,30.74
2017-05-22T11:30:54.365Z,30.27
2017-05-22T11:31:55.745Z,29.41
2017-05-22T11:32:57.208Z,30.02
2017-05-22T11:33:58.589Z,29.37
2017-05-22T11:34:59.972Z,28.63
2017-05-22T11:36:02.128Z,29.03
2017-05-22T11:37:03.497Z,29.38
2017-05-22T11:38:04.861Z,30.74
2017-05-22T11:39:06.231Z,31.91
2017-05-22T11:40:07.600Z,32.47
2017-05-22T11:41:08.976Z,32.33
2017-05-22T11:42:10.425Z,31.58
2017-05-22T11:43:11.778Z,31.58
2017-05-22T11:44:13.149Z,31.30
2017-05-22T11:45:14.519Z,31.09
2017-05-22T11:46:15.892Z,32.69
2017-05-22T11:47:17.262Z,31.54
2017-05-22T11:48:18.635Z,31.45
2017-05-22T11:49:19.999Z,30.34
2017-05-22T11:50:21.369Z,29.28
2017-05-22T11:51:22.733Z,27.57
2017-05-22T11:52:24.101Z,26.62
2017-05-22T11:53:25.466Z,26.31
2017-05-22T11:54:26.828Z,26.40
2017-05-22T11:55:28.202Z,26.87
2017-05-22T11:56:29.569Z,26.59
2017-05-22T11:57:30.947Z,25.97
2017-05-22T11:58:32.320Z,26.01
2017-05-22T11:59:33.687Z,27.28
2017-05-22T12:00:35.078Z,28.44
2017-05-22T12:01:36.433Z,30.12
2017-05-22T12:02:37.868Z,31.18
2017-05-22T12:03:39.224Z,31.15
2017-05-22T12:04:40.593Z,30.98
2017-05-22T12:05:41.987Z,30.75
2017-05-22T12:06:43.354Z,31.15
2017-05-22T12:07:44.732Z,30.03
2017-05-22T12:08:46.106Z,30.47
2017-05-22T12:09:47.481Z,29.29
2017-05-22T12:10:48.859Z,30.05
2017-05-22T12:11:50.224Z,31.06
2017-05-22T12:12:51.587Z,31.05
2017-05-22T12:13:52.951Z,29.38
2017-05-22T12:14:54.314Z,28.40
2017-05-22T12:15:55.684Z,29.31
2017-05-22T12:16:57.055Z,29.26
2017-05-22T12:17:58.425Z,29.78
2017-05-22T12:18:59.845Z,31.05
2017-05-22T12:20:01.233Z,30.37
2017-05-22T12:21:02.598Z,30.15
2017-05-22T12:22:03.966Z,29.37
2017-05-22T12:23:05.332Z,29.79
2017-05-22T12:24:06.706Z,30.86
2017-05-22T12:25:08.074Z,32.06
2017-05-22T12:26:09.454Z,32.85
2017-05-22T12:27:10.822Z,32.96
2017-05-22T12:28:12.192Z,33.92
2017-05-22T12:29:13.573Z,33.61
2017-05-22T12:30:14.943Z,33.36
2017-05-22T12:31:16.313Z,33.92
2017-05-22T12:32:17.686Z,34.26
2017-05-22T12:33:19.056Z,31.40
2017-05-22T12:34:20.539Z,30.09
2017-05-22T12:35:21.917Z,30.49
2017-05-22T12:36:23.290Z,31.43
2017-05-22T12:37:24.660Z,30.43
2017-05-22T12:38:26.085Z,31.27
2017-05-22T12:39:27.460Z,31.79
2017-05-22T12:40:28.834Z,32.07
2017-05-22T12:41:30.209Z,30.23
2017-05-22T12:42:31.593Z,29.68
2017-05-22T12:43:32.974Z,30.99
2017-05-22T12:44:34.347Z,32.03
2017-05-22T12:45:35.716Z,32.43
2017-05-22T12:46:37.177Z,33.36
2017-05-22T12:47:38.544Z,30.37
2017-05-22T12:48:39.913Z,30.05
2017-05-22T12:49:41.282Z,30.05
2017-05-22T12:50:42.670Z,30.74
2017-05-22T12:51:44.046Z,30.38
2017-05-22T12:52:45.414Z,31.38
2017-05-22T12:53:46.815Z,31.98
2017-05-22T12:54:48.186Z,32.21
2017-05-22T12:55:49.569Z,32.14
2017-05-22T12:56:50.942Z,32.13
2017-05-22T12:57:52.312Z,33.07
2017-05-22T12:58:53.682Z,32.98
2017-05-22T12:59:55.057Z,32.24
2017-05-22T13:00:56.427Z,32.00
2017-05-22T13:01:57.797Z,31.09
2017-05-22T13:02:59.163Z,32.24
2017-05-22T13:04:00.549Z,30.96
2017-05-22T13:05:01.916Z,30.80
2017-05-22T13:06:03.295Z,30.46
2017-05-22T13:07:04.665Z,29.33
2017-05-22T13:08:06.031Z,31.15
2017-05-22T13:09:07.405Z,31.27
2017-05-22T13:10:08.782Z,32.37